Terminal Aerodrome Forecast
Issued by NWS

Home | Current Version | Previous Version | Text Only | Print | Product List | Glossary Off
Versions: 1 2 3 4 5 6 7 8 9 10 11 12 13 14 15 16 17 18 19 20 21

000
FTUS41 KCLE 301736
TAFFDY
TAF
KFDY 301736Z 3018/3118 23008KT P6SM BKN050
     FM310000 23003KT P6SM SKC
     FM310800 23003KT 4SM BR SKC
      TEMPO 3110/3112 2SM BR
     FM311400 23006KT P6SM SCT030
     FM311700 23008KT P6SM BKN050=

USA.gov is the U.S. government's official web portal to all federal, state and local government web resources and services.